sensor_id;sensor_type;location;lat;lon;timestamp;pressure;altitude;pressure_sealevel;temperature;humidity
76594;BME280;65482;50.240;14.302;2023-03-05T00:13:46;99518.06;;;4.17;59.82
76594;BME280;65482;50.240;14.302;2023-03-05T00:20:33;99503.69;;;4.11;60.29
76594;BME280;65482;50.240;14.302;2023-03-05T00:23:48;99511.31;;;4.14;60.81
76594;BME280;65482;50.240;14.302;2023-03-05T00:31:31;99488.88;;;4.01;60.43
76594;BME280;65482;50.240;14.302;2023-03-05T03:36:35;99375.94;;;3.08;62.83
76594;BME280;65482;50.240;14.302;2023-03-05T03:39:29;99371.09;;;3.15;63.04
76594;BME280;65482;50.240;14.302;2023-03-05T03:45:06;99372.75;;;3.05;63.39
76594;BME280;65482;50.240;14.302;2023-03-05T03:49:01;99367.53;;;3.05;63.77
76594;BME280;65482;50.240;14.302;2023-03-05T03:51:52;99356.63;;;2.99;63.32
76594;BME280;65482;50.240;14.302;2023-03-05T03:54:20;99358.31;;;3.01;63.33
76594;BME280;65482;50.240;14.302;2023-03-05T03:56:59;99362.81;;;2.98;63.72
76594;BME280;65482;50.240;14.302;2023-03-05T03:59:48;99367.41;;;2.95;63.20
76594;BME280;65482;50.240;14.302;2023-03-05T04:02:21;99373.53;;;2.94;63.87
76594;BME280;65482;50.240;14.302;2023-03-05T04:04:47;99361.47;;;2.93;63.54
76594;BME280;65482;50.240;14.302;2023-03-05T04:07:13;99366.56;;;2.94;63.42
76594;BME280;65482;50.240;14.302;2023-03-05T04:09:39;99360.41;;;2.95;63.04
76594;BME280;65482;50.240;14.302;2023-03-05T04:12:05;99361.69;;;2.90;62.81
76594;BME280;65482;50.240;14.302;2023-03-05T04:14:32;99356.94;;;2.84;62.04
76594;BME280;65482;50.240;14.302;2023-03-05T04:16:57;99355.16;;;2.84;62.42
76594;BME280;65482;50.240;14.302;2023-03-05T04:19:23;99353.13;;;2.76;62.28
76594;BME280;65482;50.240;14.302;2023-03-05T04:21:49;99364.16;;;2.80;62.45
76594;BME280;65482;50.240;14.302;2023-03-05T04:24:15;99360.72;;;2.79;62.11
76594;BME280;65482;50.240;14.302;2023-03-05T04:26:41;99357.19;;;2.81;62.07
76594;BME280;65482;50.240;14.302;2023-03-05T04:29:07;99366.88;;;2.78;61.92
76594;BME280;65482;50.240;14.302;2023-03-05T04:31:33;99364.03;;;2.82;61.56
76594;BME280;65482;50.240;14.302;2023-03-05T04:33:59;99351.59;;;2.74;61.84
76594;BME280;65482;50.240;14.302;2023-03-05T04:36:25;99350.16;;;2.70;62.09
76594;BME280;65482;50.240;14.302;2023-03-05T04:38:51;99357.38;;;2.66;62.13
76594;BME280;65482;50.240;14.302;2023-03-05T04:41:17;99353.13;;;2.65;62.53
76594;BME280;65482;50.240;14.302;2023-03-05T04:43:43;99350.16;;;2.70;62.34
76594;BME280;65482;50.240;14.302;2023-03-05T04:46:08;99350.16;;;2.70;62.17
76594;BME280;65482;50.240;14.302;2023-03-05T04:48:34;99351.22;;;2.67;61.77
76594;BME280;65482;50.240;14.302;2023-03-05T04:51:00;99348.84;;;2.64;62.15
76594;BME280;65482;50.240;14.302;2023-03-05T04:53:26;99346.47;;;2.61;61.97
76594;BME280;65482;50.240;14.302;2023-03-05T04:55:55;99352.63;;;2.60;61.62
76594;BME280;65482;50.240;14.302;2023-03-05T04:58:22;99349.19;;;2.59;61.16
76594;BME280;65482;50.240;14.302;2023-03-05T05:00:48;99347.50;;;2.58;60.47
76594;BME280;65482;50.240;14.302;2023-03-05T05:03:15;99354.03;;;2.64;59.74
76594;BME280;65482;50.240;14.302;2023-03-05T05:05:40;99353.44;;;2.61;60.47
76594;BME280;65482;50.240;14.302;2023-03-05T05:08:06;99351.59;;;2.63;59.42
76594;BME280;65482;50.240;14.302;2023-03-05T05:10:32;99343.16;;;2.59;59.75
76594;BME280;65482;50.240;14.302;2023-03-05T05:12:58;99345.97;;;2.56;58.96
76594;BME280;65482;50.240;14.302;2023-03-05T05:15:24;99349.41;;;2.56;59.01
76594;BME280;65482;50.240;14.302;2023-03-05T05:17:50;99343.97;;;2.59;59.10
76594;BME280;65482;50.240;14.302;2023-03-05T05:20:16;99345.88;;;2.57;59.13
76594;BME280;65482;50.240;14.302;2023-03-05T05:22:42;99346.69;;;2.58;58.50
76594;BME280;65482;50.240;14.302;2023-03-05T05:25:08;99344.09;;;2.58;58.30
76594;BME280;65482;50.240;14.302;2023-03-05T05:27:36;99338.06;;;2.57;58.45
76594;BME280;65482;50.240;14.302;2023-03-05T05:30:02;99342.31;;;2.58;58.42
76594;BME280;65482;50.240;14.302;2023-03-05T05:32:29;99346.59;;;2.59;58.32
76594;BME280;65482;50.240;14.302;2023-03-05T05:34:55;99346.69;;;2.58;58.88
76594;BME280;65482;50.240;14.302;2023-03-05T05:37:22;99352.00;;;2.56;58.60
76594;BME280;65482;50.240;14.302;2023-03-05T05:39:48;99354.84;;;2.53;59.15
76594;BME280;65482;50.240;14.302;2023-03-05T05:42:20;99348.56;;;2.56;59.25
76594;BME280;65482;50.240;14.302;2023-03-05T05:44:45;99359.59;;;2.59;58.63
76594;BME280;65482;50.240;14.302;2023-03-05T05:47:17;99366.91;;;2.54;58.83
76594;BME280;65482;50.240;14.302;2023-03-05T05:49:43;99357.34;;;2.55;59.35
76594;BME280;65482;50.240;14.302;2023-03-05T05:52:09;99352.00;;;2.56;59.53
76594;BME280;65482;50.240;14.302;2023-03-05T05:54:35;99358.06;;;2.57;59.73
76594;BME280;65482;50.240;14.302;2023-03-05T05:57:01;99362.44;;;2.56;59.99
76594;BME280;65482;50.240;14.302;2023-03-05T05:59:27;99353.56;;;2.59;59.91
76594;BME280;65482;50.240;14.302;2023-03-05T06:01:52;99350.13;;;2.58;60.19
76594;BME280;65482;50.240;14.302;2023-03-05T06:04:18;99355.31;;;2.58;60.33
76594;BME280;65482;50.240;14.302;2023-03-05T06:06:53;99355.31;;;2.58;60.49
76594;BME280;65482;50.240;14.302;2023-03-05T06:09:27;99349.41;;;2.56;60.96
76594;BME280;65482;50.240;14.302;2023-03-05T06:11:53;99351.78;;;2.59;61.29
76594;BME280;65482;50.240;14.302;2023-03-05T06:14:23;99346.69;;;2.58;61.21
76594;BME280;65482;50.240;14.302;2023-03-05T06:17:47;99351.78;;;2.59;61.39
76594;BME280;65482;50.240;14.302;2023-03-05T06:21:01;99351.91;;;2.58;61.61
76594;BME280;65482;50.240;14.302;2023-03-05T06:23:44;99352.63;;;2.60;61.62
76594;BME280;65482;50.240;14.302;2023-03-05T06:26:18;99350.63;;;2.64;61.55
76594;BME280;65482;50.240;14.302;2023-03-05T06:28:58;99351.13;;;2.69;61.42
76594;BME280;65482;50.240;14.302;2023-03-05T06:31:41;99348.53;;;2.69;61.34
76594;BME280;65482;50.240;14.302;2023-03-05T06:34:09;99356.66;;;2.64;61.27
76594;BME280;65482;50.240;14.302;2023-03-05T06:36:34;99344.47;;;2.65;61.34
76594;BME280;65482;50.240;14.302;2023-03-05T06:39:00;99351.44;;;2.64;61.44
76594;BME280;65482;50.240;14.302;2023-03-05T06:41:31;99345.19;;;2.67;61.27
76594;BME280;65482;50.240;14.302;2023-03-05T06:44:00;99353.72;;;2.69;61.48
76594;BME280;65482;50.240;14.302;2023-03-05T06:46:28;99347.44;;;2.71;61.63
76594;BME280;65482;50.240;14.302;2023-03-05T06:48:58;99355.25;;;2.71;61.28
76594;BME280;65482;50.240;14.302;2023-03-05T06:51:26;99350.78;;;2.73;61.05
76594;BME280;65482;50.240;14.302;2023-03-05T06:53:53;99352.69;;;2.83;60.46
76594;BME280;65482;50.240;14.302;2023-03-05T06:56:21;99346.03;;;2.78;60.13
76594;BME280;65482;50.240;14.302;2023-03-05T06:58:48;99350.31;;;2.79;60.03
76594;BME280;65482;50.240;14.302;2023-03-05T07:01:15;99352.44;;;2.86;59.48
76594;BME280;65482;50.240;14.302;2023-03-05T07:03:41;99353.53;;;2.83;59.47
76594;BME280;65482;50.240;14.302;2023-03-05T07:06:10;99354.13;;;2.87;59.04
76594;BME280;65482;50.240;14.302;2023-03-05T07:08:52;99356.84;;;2.85;58.88
76594;BME280;65482;50.240;14.302;2023-03-05T07:11:19;99356.13;;;2.83;58.36
76594;BME280;65482;50.240;14.302;2023-03-05T07:13:48;99355.66;;;2.89;57.95
76594;BME280;65482;50.240;14.302;2023-03-05T07:16:16;99355.56;;;2.91;57.59
76594;BME280;65482;50.240;14.302;2023-03-05T07:18:43;99356.28;;;2.93;56.63
76594;BME280;65482;50.240;14.302;2023-03-05T07:21:14;99348.66;;;2.90;56.04
76594;BME280;65482;50.240;14.302;2023-03-05T07:23:42;99356.47;;;2.90;56.72
76594;BME280;65482;50.240;14.302;2023-03-05T07:26:07;99351.66;;;2.96;56.48
76594;BME280;65482;50.240;14.302;2023-03-05T07:28:34;99349.16;;;2.95;55.53
76594;BME280;65482;50.240;14.302;2023-03-05T07:31:02;99358.41;;;2.99;55.62
76594;BME280;65482;50.240;14.302;2023-03-05T07:33:28;99348.84;;;3.11;55.15
76594;BME280;65482;50.240;14.302;2023-03-05T07:35:54;99343.88;;;3.19;55.11
76594;BME280;65482;50.240;14.302;2023-03-05T07:38:21;99344.81;;;3.29;54.64
76594;BME280;65482;50.240;14.302;2023-03-05T07:40:46;99346.47;;;3.53;53.89
76594;BME280;65482;50.240;14.302;2023-03-05T07:43:12;99346.16;;;4.01;53.02
76594;BME280;65482;50.240;14.302;2023-03-05T07:45:39;99340.66;;;7.19;47.08
76594;BME280;65482;50.240;14.302;2023-03-05T07:48:07;99342.38;;;8.11;44.72
76594;BME280;65482;50.240;14.302;2023-03-05T07:50:33;99343.88;;;8.13;43.93
76594;BME280;65482;50.240;14.302;2023-03-05T07:53:00;99347.38;;;8.14;43.25
76594;BME280;65482;50.240;14.302;2023-03-05T07:55:25;99339.16;;;7.99;43.01
76594;BME280;65482;50.240;14.302;2023-03-05T07:57:51;99337.53;;;8.16;42.60
76594;BME280;65482;50.240;14.302;2023-03-05T08:00:17;99334.91;;;8.70;42.06
76594;BME280;65482;50.240;14.302;2023-03-05T08:02:44;99327.78;;;8.44;41.46
76594;BME280;65482;50.240;14.302;2023-03-05T08:05:10;99330.00;;;8.03;41.40
76594;BME280;65482;50.240;14.302;2023-03-05T08:07:37;99330.00;;;8.03;40.98
76594;BME280;65482;50.240;14.302;2023-03-05T08:10:03;99333.31;;;8.05;41.05
76594;BME280;65482;50.240;14.302;2023-03-05T08:12:30;99327.84;;;8.34;40.08
76594;BME280;65482;50.240;14.302;2023-03-05T08:14:56;99322.13;;;8.21;38.92
76594;BME280;65482;50.240;14.302;2023-03-05T08:17:23;99317.38;;;7.89;39.17
76594;BME280;65482;50.240;14.302;2023-03-05T08:19:48;99309.28;;;7.54;38.01
76594;BME280;65482;50.240;14.302;2023-03-05T08:22:14;99302.28;;;7.45;38.79
76594;BME280;65482;50.240;14.302;2023-03-05T08:24:42;99298.38;;;7.49;38.76
76594;BME280;65482;50.240;14.302;2023-03-05T08:27:08;99298.84;;;7.45;38.08
76594;BME280;65482;50.240;14.302;2023-03-05T08:29:34;99298.50;;;7.20;37.60
76594;BME280;65482;50.240;14.302;2023-03-05T08:32:00;99297.13;;;7.16;38.82
76594;BME280;65482;50.240;14.302;2023-03-05T08:34:26;99294.84;;;7.03;38.81
76594;BME280;65482;50.240;14.302;2023-03-05T08:36:52;99296.53;;;6.94;39.06
76594;BME280;65482;50.240;14.302;2023-03-05T08:39:18;99289.06;;;7.00;38.75
76594;BME280;65482;50.240;14.302;2023-03-05T08:41:44;99275.81;;;7.01;38.28
76594;BME280;65482;50.240;14.302;2023-03-05T08:44:10;99286.66;;;7.16;38.42
76594;BME280;65482;50.240;14.302;2023-03-05T08:46:40;99274.72;;;7.31;37.51
76594;BME280;65482;50.240;14.302;2023-03-05T08:49:06;99273.28;;;7.47;37.40
76594;BME280;65482;50.240;14.302;2023-03-05T08:51:32;99276.28;;;7.70;38.05
76594;BME280;65482;50.240;14.302;2023-03-05T08:53:59;99274.22;;;7.91;37.08
76594;BME280;65482;50.240;14.302;2023-03-05T08:56:26;99268.63;;;8.04;36.89
76594;BME280;65482;50.240;14.302;2023-03-05T08:58:55;99269.16;;;8.08;35.95
76594;BME280;65482;50.240;14.302;2023-03-05T09:01:21;99265.06;;;8.13;35.80
76594;BME280;65482;50.240;14.302;2023-03-05T09:03:50;99263.97;;;8.16;36.20
76594;BME280;65482;50.240;14.302;2023-03-05T09:06:17;99252.59;;;8.15;36.21
76594;BME280;65482;50.240;14.302;2023-03-05T09:08:42;99260.28;;;8.27;36.03
76594;BME280;65482;50.240;14.302;2023-03-05T09:11:11;99255.59;;;8.39;35.72
76594;BME280;65482;50.240;14.302;2023-03-05T09:13:37;99250.94;;;8.50;35.67
76594;BME280;65482;50.240;14.302;2023-03-05T09:16:06;99250.28;;;8.48;35.61
76594;BME280;65482;50.240;14.302;2023-03-05T09:18:32;99247.84;;;8.55;35.47
76594;BME280;65482;50.240;14.302;2023-03-05T09:21:06;99256.06;;;8.52;36.25
76594;BME280;65482;50.240;14.302;2023-03-05T09:23:32;99252.25;;;8.46;36.10
76594;BME280;65482;50.240;14.302;2023-03-05T09:25:59;99249.53;;;8.38;37.18
76594;BME280;65482;50.240;14.302;2023-03-05T09:28:24;99244.28;;;8.38;36.48
76594;BME280;65482;50.240;14.302;2023-03-05T09:30:53;99239.97;;;8.37;37.18
76594;BME280;65482;50.240;14.302;2023-03-05T09:33:19;99249.81;;;8.35;37.45
76594;BME280;65482;50.240;14.302;2023-03-05T09:35:45;99244.03;;;8.49;36.83
76594;BME280;65482;50.240;14.302;2023-03-05T09:38:14;99243.53;;;8.46;36.42
76594;BME280;65482;50.240;14.302;2023-03-05T09:41:01;99238.19;;;8.38;37.27
76594;BME280;65482;50.240;14.302;2023-03-05T09:53:59;99217.50;;;7.99;38.98
76594;BME280;65482;50.240;14.302;2023-03-05T09:56:46;99215.69;;;7.99;39.20
76594;BME280;65482;50.240;14.302;2023-03-05T09:59:21;99215.69;;;7.99;38.80
76594;BME280;65482;50.240;14.302;2023-03-05T10:01:51;99213.16;;;7.89;38.47
76594;BME280;65482;50.240;14.302;2023-03-05T10:04:20;99210.59;;;7.80;39.05
76594;BME280;65482;50.240;14.302;2023-03-05T10:07:04;99212.78;;;7.48;38.06
76594;BME280;65482;50.240;14.302;2023-03-05T10:09:54;99206.16;;;7.44;38.68
76594;BME280;65482;50.240;14.302;2023-03-05T10:12:43;99210.19;;;7.39;38.49
76594;BME280;65482;50.240;14.302;2023-03-05T10:15:15;99206.97;;;7.45;39.06
76594;BME280;65482;50.240;14.302;2023-03-05T10:21:30;99196.66;;;7.61;38.21
76594;BME280;65482;50.240;14.302;2023-03-05T10:24:13;99194.53;;;7.47;38.31
76594;BME280;65482;50.240;14.302;2023-03-05T10:29:38;99188.19;;;6.94;39.44
76594;BME280;65482;50.240;14.302;2023-03-05T10:38:02;99193.28;;;7.87;38.78
76594;BME280;65482;50.240;14.302;2023-03-05T10:40:45;99185.50;;;8.21;38.17
76594;BME280;65482;50.240;14.302;2023-03-05T10:43:36;99183.56;;;8.49;37.72
76594;BME280;65482;50.240;14.302;2023-03-05T10:46:14;99174.72;;;8.50;37.41
76594;BME280;65482;50.240;14.302;2023-03-05T10:48:45;99178.84;;;8.35;37.17
76594;BME280;65482;50.240;14.302;2023-03-05T10:51:18;99176.66;;;8.22;36.80
76594;BME280;65482;50.240;14.302;2023-03-05T10:53:51;99164.59;;;8.38;36.94
76594;BME280;65482;50.240;14.302;2023-03-05T10:56:21;99169.00;;;8.37;37.02
76594;BME280;65482;50.240;14.302;2023-03-05T10:58:47;99167.34;;;8.28;37.95
76594;BME280;65482;50.240;14.302;2023-03-05T11:03:50;99168.81;;;7.86;38.89
76594;BME280;65482;50.240;14.302;2023-03-05T11:06:36;99162.84;;;7.58;38.76
76594;BME280;65482;50.240;14.302;2023-03-05T11:12:17;99154.28;;;7.56;38.59
76594;BME280;65482;50.240;14.302;2023-03-05T11:14:44;99154.50;;;7.45;39.49
76594;BME280;65482;50.240;14.302;2023-03-05T11:17:33;99157.09;;;7.27;39.33
76594;BME280;65482;50.240;14.302;2023-03-05T11:23:13;99149.59;;;6.86;41.18
76594;BME280;65482;50.240;14.302;2023-03-05T11:28:23;99144.91;;;6.80;41.31
76594;BME280;65482;50.240;14.302;2023-03-05T11:30:58;99140.13;;;6.75;41.36
76594;BME280;65482;50.240;14.302;2023-03-05T11:33:24;99131.22;;;6.86;41.60
76594;BME280;65482;50.240;14.302;2023-03-05T11:35:53;99127.81;;;7.04;40.80
76594;BME280;65482;50.240;14.302;2023-03-05T11:47:15;99112.44;;;7.19;40.48
76594;BME280;65482;50.240;14.302;2023-03-05T11:49:48;99103.53;;;7.02;40.65
76594;BME280;65482;50.240;14.302;2023-03-05T11:52:20;99104.88;;;6.88;40.29
76594;BME280;65482;50.240;14.302;2023-03-05T11:55:09;99102.28;;;6.78;41.44
76594;BME280;65482;50.240;14.302;2023-03-05T11:57:43;99099.22;;;6.65;41.11
76594;BME280;65482;50.240;14.302;2023-03-05T12:00:14;99092.34;;;6.54;41.38
76594;BME280;65482;50.240;14.302;2023-03-05T12:02:40;99090.88;;;6.42;42.03
76594;BME280;65482;50.240;14.302;2023-03-05T12:05:15;99088.59;;;6.29;42.17
76594;BME280;65482;50.240;14.302;2023-03-05T12:07:48;99090.72;;;6.15;41.81
76594;BME280;65482;50.240;14.302;2023-03-05T12:10:20;99090.28;;;6.10;42.66
76594;BME280;65482;50.240;14.302;2023-03-05T12:12:52;99088.66;;;6.09;42.40
76594;BME280;65482;50.240;14.302;2023-03-05T12:15:30;99081.66;;;6.00;42.83
76594;BME280;65482;50.240;14.302;2023-03-05T12:20:48;99082.75;;;5.88;44.16
76594;BME280;65482;50.240;14.302;2023-03-05T12:23:20;99085.13;;;5.81;45.54
76594;BME280;65482;50.240;14.302;2023-03-05T12:25:53;99078.09;;;5.82;45.20
76594;BME280;65482;50.240;14.302;2023-03-05T12:31:01;99076.84;;;5.66;46.35
76594;BME280;65482;50.240;14.302;2023-03-05T12:33:33;99069.69;;;5.68;46.59
76594;BME280;65482;50.240;14.302;2023-03-05T12:38:56;99059.66;;;5.64;46.81
76594;BME280;65482;50.240;14.302;2023-03-05T12:41:44;99057.28;;;5.80;47.01
76594;BME280;65482;50.240;14.302;2023-03-05T12:44:42;99054.78;;;5.98;45.95
76594;BME280;65482;50.240;14.302;2023-03-05T12:51:04;99041.84;;;6.34;45.23
76594;BME280;65482;50.240;14.302;2023-03-05T12:53:49;99044.84;;;6.39;44.85
76594;BME280;65482;50.240;14.302;2023-03-05T12:56:49;99048.78;;;6.25;44.14
76594;BME280;65482;50.240;14.302;2023-03-05T13:00:38;99045.19;;;6.16;44.60
76594;BME280;65482;50.240;14.302;2023-03-05T13:03:32;99035.88;;;5.94;45.39
76594;BME280;65482;50.240;14.302;2023-03-05T13:06:47;99036.59;;;5.87;45.98
76594;BME280;65482;50.240;14.302;2023-03-05T13:09:58;99039.50;;;5.84;46.60
76594;BME280;65482;50.240;14.302;2023-03-05T13:12:49;99047.50;;;5.82;46.30
76594;BME280;65482;50.240;14.302;2023-03-05T13:19:43;99042.00;;;5.95;47.25
76594;BME280;65482;50.240;14.302;2023-03-05T13:22:45;99043.22;;;5.81;46.66
76594;BME280;65482;50.240;14.302;2023-03-05T13:25:38;99039.28;;;5.57;47.67
76594;BME280;65482;50.240;14.302;2023-03-05T13:28:53;99052.06;;;5.51;47.56
76594;BME280;65482;50.240;14.302;2023-03-05T13:31:58;99042.59;;;5.50;47.82
76594;BME280;65482;50.240;14.302;2023-03-05T13:34:57;99038.75;;;5.44;47.87
76594;BME280;65482;50.240;14.302;2023-03-05T13:37:42;99039.00;;;5.41;47.79
76594;BME280;65482;50.240;14.302;2023-03-05T13:40:38;99039.16;;;5.40;48.28
76594;BME280;65482;50.240;14.302;2023-03-05T13:46:39;99035.84;;;5.47;48.11
76594;BME280;65482;50.240;14.302;2023-03-05T13:50:20;99023.28;;;5.61;47.29
76594;BME280;65482;50.240;14.302;2023-03-05T13:56:36;99017.47;;;5.76;47.29
76594;BME280;65482;50.240;14.302;2023-03-05T13:59:58;99025.28;;;5.86;46.96
76594;BME280;65482;50.240;14.302;2023-03-05T14:03:00;99023.09;;;6.01;47.19
76594;BME280;65482;50.240;14.302;2023-03-05T14:06:24;99008.97;;;6.12;46.54
76594;BME280;65482;50.240;14.302;2023-03-05T14:09:23;99003.88;;;6.10;46.42
76594;BME280;65482;50.240;14.302;2023-03-05T14:12:36;99008.06;;;6.03;46.71
76594;BME280;65482;50.240;14.302;2023-03-05T14:15:33;98999.41;;;5.93;46.44
76594;BME280;65482;50.240;14.302;2023-03-05T14:27:46;98987.88;;;5.76;46.17
76594;BME280;65482;50.240;14.302;2023-03-05T14:30:52;98980.28;;;5.73;46.01
76594;BME280;65482;50.240;14.302;2023-03-05T14:33:43;98975.47;;;5.78;46.75
76594;BME280;65482;50.240;14.302;2023-03-05T14:36:13;98976.13;;;5.80;46.37
76594;BME280;65482;50.240;14.302;2023-03-05T14:38:53;98973.28;;;5.73;46.12
76594;BME280;65482;50.240;14.302;2023-03-05T14:41:40;98967.38;;;5.62;45.92
76594;BME280;65482;50.240;14.302;2023-03-05T14:44:37;98968.22;;;5.62;45.31
76594;BME280;65482;50.240;14.302;2023-03-05T14:47:35;98957.50;;;5.55;45.57
76594;BME280;65482;50.240;14.302;2023-03-05T14:53:50;98955.28;;;5.51;45.83
76594;BME280;65482;50.240;14.302;2023-03-05T14:57:03;98956.00;;;5.43;46.53
76594;BME280;65482;50.240;14.302;2023-03-05T15:03:30;98949.25;;;5.41;46.49
76594;BME280;65482;50.240;14.302;2023-03-05T15:06:32;98940.19;;;5.35;47.35
76594;BME280;65482;50.240;14.302;2023-03-05T15:09:44;98936.06;;;5.32;47.13
76594;BME280;65482;50.240;14.302;2023-03-05T15:12:58;98939.09;;;5.37;47.60
76594;BME280;65482;50.240;14.302;2023-03-05T15:15:46;98936.47;;;5.37;47.97
76594;BME280;65482;50.240;14.302;2023-03-05T15:18:53;98928.88;;;5.44;47.46
76594;BME280;65482;50.240;14.302;2023-03-05T15:25:10;98924.34;;;5.36;47.08
76594;BME280;65482;50.240;14.302;2023-03-05T15:31:23;98916.50;;;5.36;47.53
76594;BME280;65482;50.240;14.302;2023-03-05T15:34:27;98913.22;;;5.34;47.25
76594;BME280;65482;50.240;14.302;2023-03-05T15:37:23;98911.56;;;5.33;47.01
76594;BME280;65482;50.240;14.302;2023-03-05T15:40:30;98917.63;;;5.34;47.80
76594;BME280;65482;50.240;14.302;2023-03-05T15:43:21;98923.28;;;5.29;47.51
76594;BME280;65482;50.240;14.302;2023-03-05T15:49:16;98921.38;;;5.22;48.06
76594;BME280;65482;50.240;14.302;2023-03-05T15:52:22;98932.09;;;5.18;48.55
76594;BME280;65482;50.240;14.302;2023-03-05T15:55:07;98931.41;;;5.07;49.77
76594;BME280;65482;50.240;14.302;2023-03-05T15:58:18;98924.44;;;4.97;51.93
76594;BME280;65482;50.240;14.302;2023-03-05T16:01:13;98927.19;;;4.86;52.56
76594;BME280;65482;50.240;14.302;2023-03-05T16:04:11;98928.44;;;4.82;52.63
76594;BME280;65482;50.240;14.302;2023-03-05T16:07:12;98923.47;;;4.69;53.30
76594;BME280;65482;50.240;14.302;2023-03-05T16:09:45;98920.03;;;4.69;53.53
76594;BME280;65482;50.240;14.302;2023-03-05T16:12:28;98929.38;;;4.62;53.85
76594;BME280;65482;50.240;14.302;2023-03-05T16:15:34;98917.53;;;4.67;53.55
76594;BME280;65482;50.240;14.302;2023-03-05T16:18:22;98916.59;;;4.68;53.45
76594;BME280;65482;50.240;14.302;2023-03-05T16:21:46;98916.72;;;4.67;54.16
76594;BME280;65482;50.240;14.302;2023-03-05T16:24:41;98904.47;;;4.67;54.21
76594;BME280;65482;50.240;14.302;2023-03-05T16:30:58;98912.47;;;4.56;53.96
76594;BME280;65482;50.240;14.302;2023-03-05T16:33:50;98900.09;;;4.48;54.23
76594;BME280;65482;50.240;14.302;2023-03-05T16:39:59;98900.50;;;4.34;54.99
76594;BME280;65482;50.240;14.302;2023-03-05T16:42:48;98898.97;;;4.31;54.41
76594;BME280;65482;50.240;14.302;2023-03-05T16:45:49;98910.50;;;4.29;54.69
76594;BME280;65482;50.240;14.302;2023-03-05T16:48:46;98893.34;;;4.26;54.99
76594;BME280;65482;50.240;14.302;2023-03-05T16:52:11;98898.25;;;4.19;54.82
76594;BME280;65482;50.240;14.302;2023-03-05T16:55:07;98908.00;;;4.17;54.93
76594;BME280;65482;50.240;14.302;2023-03-05T16:58:01;98909.13;;;4.25;55.06
76594;BME280;65482;50.240;14.302;2023-03-05T17:00:55;98916.53;;;4.29;54.73
76594;BME280;65482;50.240;14.302;2023-03-05T17:03:34;98912.69;;;4.24;55.01
76594;BME280;65482;50.240;14.302;2023-03-05T17:12:57;98916.66;;;4.08;55.98
76594;BME280;65482;50.240;14.302;2023-03-05T17:15:41;98918.69;;;4.05;55.78
76594;BME280;65482;50.240;14.302;2023-03-05T17:18:21;98914.59;;;4.02;55.86
76594;BME280;65482;50.240;14.302;2023-03-05T17:21:19;98911.66;;;3.95;55.70
76594;BME280;65482;50.240;14.302;2023-03-05T17:24:27;98915.13;;;3.96;55.86
76594;BME280;65482;50.240;14.302;2023-03-05T17:27:13;98916.47;;;3.90;56.39
76594;BME280;65482;50.240;14.302;2023-03-05T17:30:29;98924.31;;;3.90;56.39
76594;BME280;65482;50.240;14.302;2023-03-05T17:34:01;98920.03;;;3.89;56.30
76594;BME280;65482;50.240;14.302;2023-03-05T17:40:03;98912.31;;;3.88;56.70
76594;BME280;65482;50.240;14.302;2023-03-05T17:42:47;98911.50;;;3.87;56.87
76594;BME280;65482;50.240;14.302;2023-03-05T17:45:57;98924.69;;;3.86;57.46
76594;BME280;65482;50.240;14.302;2023-03-05T17:51:45;98914.81;;;3.89;57.21
76594;BME280;65482;50.240;14.302;2023-03-05T17:54:33;98923.59;;;3.88;57.57
76594;BME280;65482;50.240;14.302;2023-03-05T17:57:17;98917.81;;;3.85;57.27
76594;BME280;65482;50.240;14.302;2023-03-05T18:03:34;98914.25;;;3.86;57.56
76594;BME280;65482;50.240;14.302;2023-03-05T18:06:13;98907.09;;;3.88;57.94
76594;BME280;65482;50.240;14.302;2023-03-05T18:09:22;98912.31;;;3.88;57.81
76594;BME280;65482;50.240;14.302;2023-03-05T18:16:08;98911.50;;;3.87;58.09
76594;BME280;65482;50.240;14.302;2023-03-05T18:18:53;98910.00;;;3.85;57.96
76594;BME280;65482;50.240;14.302;2023-03-05T18:22:02;98907.63;;;3.82;58.55
76594;BME280;65482;50.240;14.302;2023-03-05T18:24:54;98903.25;;;3.82;58.46
76594;BME280;65482;50.240;14.302;2023-03-05T18:33:55;98891.69;;;3.75;57.88
76594;BME280;65482;50.240;14.302;2023-03-05T18:37:24;98884.41;;;3.69;58.81
76594;BME280;65482;50.240;14.302;2023-03-05T18:40:12;98896.47;;;3.70;58.35
76594;BME280;65482;50.240;14.302;2023-03-05T18:43:47;98889.88;;;3.66;58.30
76594;BME280;65482;50.240;14.302;2023-03-05T18:46:32;98886.56;;;3.64;58.43
76594;BME280;65482;50.240;14.302;2023-03-05T18:49:29;98891.78;;;3.64;58.30
76594;BME280;65482;50.240;14.302;2023-03-05T18:52:38;98892.63;;;3.64;58.39
76594;BME280;65482;50.240;14.302;2023-03-05T18:55:52;98888.22;;;3.65;58.09
76594;BME280;65482;50.240;14.302;2023-03-05T18:58:40;98890.03;;;3.64;57.94
76594;BME280;65482;50.240;14.302;2023-03-05T19:02:25;98887.66;;;3.61;57.90
76594;BME280;65482;50.240;14.302;2023-03-05T19:05:37;98889.56;;;3.59;57.80
76594;BME280;65482;50.240;14.302;2023-03-05T19:08:35;98884.13;;;3.62;57.33
76594;BME280;65482;50.240;14.302;2023-03-05T19:11:33;98893.56;;;3.63;57.10
76594;BME280;65482;50.240;14.302;2023-03-05T19:14:44;98884.94;;;3.63;56.79
76594;BME280;65482;50.240;14.302;2023-03-05T19:17:24;98885.19;;;3.59;56.58
76594;BME280;65482;50.240;14.302;2023-03-05T19:20:31;98890.16;;;3.63;56.32
76594;BME280;65482;50.240;14.302;2023-03-05T19:23:19;98887.66;;;3.61;56.27
76594;BME280;65482;50.240;14.302;2023-03-05T19:25:59;98878.03;;;3.62;56.15
76594;BME280;65482;50.240;14.302;2023-03-05T19:32:17;98886.72;;;3.62;55.88
76594;BME280;65482;50.240;14.302;2023-03-05T19:35:27;98887.78;;;3.59;55.98
76594;BME280;65482;50.240;14.302;2023-03-05T19:38:29;98877.63;;;3.56;56.12
76594;BME280;65482;50.240;14.302;2023-03-05T19:41:15;98875.28;;;3.53;56.28
76594;BME280;65482;50.240;14.302;2023-03-05T19:44:15;98871.28;;;3.49;56.29
76594;BME280;65482;50.240;14.302;2023-03-05T19:47:14;98877.31;;;3.50;56.61
76594;BME280;65482;50.240;14.302;2023-03-05T19:50:34;98878.41;;;3.47;56.71